Kanoya, Kanoya Air Field (RJFY)

NameKanoya Air Field
CityKanoya
CountryJapan
ICAORJFY
IATA
Altitude65 m
CoordinatesGoogle Map
Live Air TrafficLiveATC.net
METARRJFY 120752Z 11004KT 060V180 9999 FEW030 27/18 Q1002 RMK 1CU030 A2961 VOLCANIC ASH 20KM NW MOV S
2019-10-12 07:52:00 Wind: East (110°) 2.06 m/s - Visibility: > 10000 m - Temperature: 27 °C - Dew point: 18 °C - Humidity: 57.9% - Pressure: 1002 hPa

Sorry, no flights used the airport in this database.